createdAt,value
2019-01-12T00:00:15.573Z,17.57
2019-01-12T00:02:44.139Z,14.87
2019-01-12T00:05:12.795Z,19.87
2019-01-12T00:07:41.361Z,16.87
2019-01-12T00:10:10.055Z,16.70
2019-01-12T00:12:38.577Z,21.97
2019-01-12T00:15:08.099Z,20.13
2019-01-12T00:17:36.664Z,20.80
2019-01-12T00:20:07.492Z,18.97
2019-01-12T00:22:36.047Z,22.77
2019-01-12T00:25:07.075Z,25.97
2019-01-12T00:27:35.711Z,27.80
2019-01-12T00:30:07.208Z,22.13
2019-01-12T00:32:35.772Z,20.23
2019-01-12T00:35:05.594Z,15.80
2019-01-12T00:37:34.166Z,15.93
2019-01-12T00:40:02.815Z,24.30
2019-01-12T00:42:31.383Z,30.20
2019-01-12T00:44:59.968Z,28.87
2019-01-12T00:47:28.528Z,25.93
2019-01-12T00:49:57.121Z,25.73
2019-01-12T00:52:25.700Z,19.47
2019-01-12T00:54:54.284Z,24.23
2019-01-12T00:57:22.856Z,24.63
2019-01-12T00:59:51.445Z,24.23
2019-01-12T01:02:20.002Z,28.63
2019-01-12T01:04:48.663Z,30.37
2019-01-12T01:07:17.232Z,27.63
2019-01-12T01:09:45.821Z,26.17
2019-01-12T01:12:14.378Z,18.43
2019-01-12T01:14:42.972Z,18.03
2019-01-12T01:17:11.527Z,20.50
2019-01-12T01:19:40.095Z,29.60
2019-01-12T01:22:08.682Z,26.13
2019-01-12T01:24:37.239Z,18.60
2019-01-12T01:27:05.832Z,23.00
2019-01-12T01:29:34.401Z,22.47
2019-01-12T01:32:02.989Z,16.07
2019-01-12T01:34:31.546Z,21.87
2019-01-12T01:37:00.131Z,21.77
2019-01-12T01:39:28.692Z,24.63
2019-01-12T01:41:57.289Z,24.50
2019-01-12T01:44:25.853Z,18.53
2019-01-12T01:46:54.435Z,17.20
2019-01-12T01:49:22.996Z,25.77
2019-01-12T01:51:51.576Z,16.67
2019-01-12T01:54:20.147Z,21.03
2019-01-12T01:56:48.797Z,25.20
2019-01-12T01:59:17.361Z,18.00
2019-01-12T02:01:45.961Z,21.70
2019-01-12T02:04:14.524Z,35.47
2019-01-12T02:06:43.108Z,19.67
2019-01-12T02:09:11.685Z,21.83
2019-01-12T02:11:40.260Z,22.10
2019-01-12T02:14:08.828Z,23.37
2019-01-12T02:16:37.412Z,16.10
2019-01-12T02:19:05.972Z,20.87
2019-01-12T02:21:34.563Z,25.13
2019-01-12T02:24:03.133Z,14.97
2019-01-12T02:26:31.722Z,21.33
2019-01-12T02:29:00.284Z,21.83
2019-01-12T02:31:28.875Z,28.10
2019-01-12T02:33:58.622Z,24.47
2019-01-12T02:36:27.201Z,15.73
2019-01-12T02:38:55.770Z,22.00
2019-01-12T02:41:24.356Z,19.50
2019-01-12T02:43:52.929Z,30.80
2019-01-12T02:46:21.513Z,20.63
2019-01-12T02:48:50.076Z,26.03
2019-01-12T02:51:18.663Z,17.47
2019-01-12T02:53:47.231Z,19.43
2019-01-12T02:56:15.822Z,17.07
2019-01-12T02:58:44.382Z,12.13
2019-01-12T03:01:12.970Z,16.93
2019-01-12T03:03:41.529Z,24.17
2019-01-12T03:06:10.124Z,18.37
2019-01-12T03:08:38.752Z,17.77
2019-01-12T03:11:07.336Z,22.57
2019-01-12T03:13:35.908Z,31.07
2019-01-12T03:16:05.532Z,13.83
2019-01-12T03:18:34.097Z,27.50
2019-01-12T03:21:02.748Z,19.93
2019-01-12T03:23:31.309Z,23.53
2019-01-12T03:25:59.897Z,17.63
2019-01-12T03:28:28.460Z,14.40
2019-01-12T03:30:57.057Z,20.43
2019-01-12T03:33:25.617Z,17.33
2019-01-12T03:35:54.211Z,15.03
2019-01-12T03:38:22.772Z,22.60
2019-01-12T03:40:51.361Z,12.77
2019-01-12T03:43:19.920Z,24.77
2019-01-12T03:45:49.748Z,27.63
2019-01-12T03:48:18.409Z,12.27
2019-01-12T03:50:46.975Z,25.17
2019-01-12T03:53:15.562Z,21.17
2019-01-12T03:55:44.128Z,18.07
2019-01-12T03:58:12.711Z,20.37
2019-01-12T04:00:41.273Z,15.33
2019-01-12T04:03:09.856Z,25.87
2019-01-12T04:05:38.419Z,18.80
2019-01-12T04:08:07.015Z,16.27
2019-01-12T04:10:35.583Z,17.77
2019-01-12T04:13:04.163Z,21.40
2019-01-12T04:15:32.868Z,16.03
2019-01-12T04:18:01.451Z,23.23
2019-01-12T04:20:30.018Z,12.87
2019-01-12T04:22:58.604Z,21.27
2019-01-12T04:25:33.627Z,20.60
2019-01-12T04:27:57.408Z,12.93
2019-01-12T04:30:25.968Z,12.70
2019-01-12T04:32:54.553Z,18.30
2019-01-12T04:35:23.224Z,13.47
2019-01-12T04:37:51.817Z,18.73
2019-01-12T04:40:20.443Z,21.80
2019-01-12T04:42:49.100Z,18.83
2019-01-12T04:45:17.737Z,15.20
2019-01-12T04:47:46.400Z,10.63
2019-01-12T04:50:15.633Z,17.60
2019-01-12T04:52:44.286Z,10.87
2019-01-12T04:55:13.383Z,9.67
2019-01-12T04:57:42.031Z,11.83
2019-01-12T05:00:13.915Z,12.37
2019-01-12T05:02:42.564Z,14.33
2019-01-12T05:05:11.360Z,8.03
2019-01-12T05:07:39.940Z,8.43
2019-01-12T05:10:10.849Z,9.17
2019-01-12T05:12:39.498Z,13.50
2019-01-12T05:15:12.994Z,17.37
2019-01-12T05:17:41.717Z,15.60
2019-01-12T05:20:13.686Z,18.17
2019-01-12T05:22:42.277Z,13.20
2019-01-12T05:25:10.975Z,18.00
2019-01-12T05:27:39.559Z,8.60
2019-01-12T05:30:11.195Z,16.73
2019-01-12T05:32:39.786Z,14.43
2019-01-12T05:35:08.417Z,9.77
2019-01-12T05:37:37.001Z,10.90
2019-01-12T05:40:08.003Z,7.43
2019-01-12T05:42:36.756Z,7.60
2019-01-12T05:45:07.649Z,9.33
2019-01-12T05:47:36.231Z,15.53
2019-01-12T05:50:07.733Z,8.30
2019-01-12T05:52:36.320Z,6.90
2019-01-12T05:55:06.116Z,11.70
2019-01-12T05:57:34.699Z,9.10
2019-01-12T06:00:04.870Z,7.30
2019-01-12T06:02:33.460Z,8.87
2019-01-12T06:05:02.023Z,13.80
2019-01-12T06:07:30.602Z,8.37
2019-01-12T06:09:59.167Z,11.10
2019-01-12T06:12:27.752Z,8.77
2019-01-12T06:14:56.315Z,12.70
2019-01-12T06:17:24.899Z,10.77
2019-01-12T06:19:53.463Z,5.37
2019-01-12T06:22:22.047Z,9.07
2019-01-12T06:24:50.609Z,13.13
2019-01-12T06:27:19.192Z,9.67
2019-01-12T06:29:47.755Z,11.77
2019-01-12T06:32:16.338Z,9.70
2019-01-12T06:34:44.891Z,7.53
2019-01-12T06:37:13.467Z,6.53
2019-01-12T06:39:42.030Z,5.63
2019-01-12T06:42:10.592Z,4.83
2019-01-12T06:44:39.176Z,3.47
2019-01-12T06:47:07.744Z,4.40
2019-01-12T06:49:36.323Z,5.93
2019-01-12T06:52:04.956Z,5.17
2019-01-12T06:54:33.541Z,4.97
2019-01-12T06:57:02.099Z,6.03
2019-01-12T06:59:30.688Z,5.97
2019-01-12T07:01:59.243Z,5.17
2019-01-12T07:04:27.920Z,6.10
2019-01-12T07:06:56.484Z,3.33
2019-01-12T07:09:25.068Z,3.37
2019-01-12T07:11:53.623Z,4.17
2019-01-12T07:14:22.210Z,4.97
2019-01-12T07:16:50.771Z,5.47
2019-01-12T07:19:19.356Z,4.13
2019-01-12T07:21:47.922Z,4.33
2019-01-12T07:24:16.499Z,3.63
2019-01-12T07:26:45.064Z,2.77
2019-01-12T07:29:13.645Z,4.80
2019-01-12T07:31:42.203Z,3.07
2019-01-12T07:34:10.790Z,2.73
2019-01-12T07:36:39.351Z,3.67
2019-01-12T07:39:08.007Z,2.83
2019-01-12T07:41:36.563Z,2.73
2019-01-12T07:44:05.218Z,3.20
2019-01-12T07:46:33.783Z,3.50
2019-01-12T07:49:02.363Z,2.27
2019-01-12T07:51:30.928Z,2.50
2019-01-12T07:53:59.508Z,3.03
2019-01-12T07:56:28.067Z,2.73
2019-01-12T07:58:56.661Z,2.70
2019-01-12T08:01:25.216Z,3.30
2019-01-12T08:03:53.796Z,4.27
2019-01-12T08:06:22.360Z,3.23
2019-01-12T08:08:50.952Z,2.37
2019-01-12T08:11:19.508Z,4.73
2019-01-12T08:13:48.092Z,2.87
2019-01-12T08:16:16.668Z,2.97
2019-01-12T08:18:45.235Z,2.73
2019-01-12T08:21:13.796Z,2.90
2019-01-12T08:23:42.380Z,3.97
2019-01-12T08:26:10.941Z,3.13
2019-01-12T08:28:39.523Z,2.50
2019-01-12T08:31:08.083Z,2.93
2019-01-12T08:33:36.683Z,3.03
2019-01-12T08:36:05.243Z,2.80
2019-01-12T08:38:33.831Z,3.53
2019-01-12T08:41:02.386Z,3.23
2019-01-12T08:43:30.965Z,4.30
2019-01-12T08:45:59.524Z,3.00
2019-01-12T08:48:28.108Z,2.47
2019-01-12T08:50:56.667Z,4.13
2019-01-12T08:53:25.275Z,3.83
2019-01-12T08:55:53.821Z,3.40
2019-01-12T08:58:22.396Z,3.93
2019-01-12T09:00:50.955Z,2.80
2019-01-12T09:03:19.535Z,3.43
2019-01-12T09:05:48.100Z,3.00
2019-01-12T09:08:16.660Z,2.90
2019-01-12T09:10:45.247Z,2.10
2019-01-12T09:13:13.803Z,3.10
2019-01-12T09:15:42.387Z,2.90
2019-01-12T09:18:10.947Z,2.00
2019-01-12T09:20:39.536Z,3.10
2019-01-12T09:23:08.096Z,2.73
2019-01-12T09:25:36.679Z,3.03
2019-01-12T09:28:05.314Z,2.37
2019-01-12T09:30:33.897Z,2.83
2019-01-12T09:33:02.451Z,2.47
2019-01-12T09:35:31.112Z,3.53
2019-01-12T09:37:59.672Z,2.13
2019-01-12T09:40:28.255Z,2.80
2019-01-12T09:42:56.815Z,3.10
2019-01-12T09:45:25.400Z,3.73
2019-01-12T09:47:54.026Z,3.43
2019-01-12T09:50:22.675Z,3.07
2019-01-12T09:52:51.583Z,5.17
2019-01-12T09:55:20.235Z,3.37
2019-01-12T09:57:48.862Z,4.73
2019-01-12T10:00:22.352Z,3.63
2019-01-12T10:02:50.904Z,2.90
2019-01-12T10:05:19.558Z,4.17
2019-01-12T10:07:48.120Z,3.80
2019-01-12T10:10:19.790Z,4.23
2019-01-12T10:12:48.744Z,3.60
2019-01-12T10:15:17.600Z,2.60
2019-01-12T10:17:46.228Z,4.00
2019-01-12T10:20:16.651Z,2.67
2019-01-12T10:22:45.351Z,2.33
2019-01-12T10:25:14.975Z,2.63
2019-01-12T10:27:43.606Z,4.10
2019-01-12T10:30:17.772Z,2.57
2019-01-12T10:32:46.332Z,4.47
2019-01-12T10:35:14.924Z,2.20
2019-01-12T10:37:43.649Z,4.83
2019-01-12T10:40:17.856Z,3.00
2019-01-12T10:42:47.956Z,3.37
2019-01-12T10:45:18.876Z,2.30
2019-01-12T10:47:47.707Z,2.53
2019-01-12T10:50:21.936Z,2.93
2019-01-12T10:52:50.520Z,3.87
2019-01-12T10:55:19.100Z,2.90
2019-01-12T10:57:47.726Z,2.70
2019-01-12T11:00:21.988Z,2.90
2019-01-12T11:02:50.622Z,2.77
2019-01-12T11:05:19.338Z,4.10
2019-01-12T11:07:47.974Z,2.57
2019-01-12T11:10:16.621Z,2.77
2019-01-12T11:12:45.247Z,2.10
2019-01-12T11:15:19.316Z,2.63
2019-01-12T11:17:48.312Z,2.87
2019-01-12T11:20:16.969Z,2.70
2019-01-12T11:22:45.864Z,3.10
2019-01-12T11:25:15.492Z,2.67
2019-01-12T11:27:44.115Z,2.60
2019-01-12T11:30:17.512Z,3.03
2019-01-12T11:32:46.440Z,2.20
2019-01-12T11:35:15.087Z,2.53
2019-01-12T11:37:43.912Z,2.63
2019-01-12T11:40:20.765Z,3.90
2019-01-12T11:42:50.565Z,2.90
2019-01-12T11:45:19.687Z,2.87
2019-01-12T11:47:48.316Z,2.93
2019-01-12T11:50:17.263Z,3.00
2019-01-12T11:52:46.767Z,4.90
2019-01-12T11:55:16.990Z,3.53
2019-01-12T11:57:46.123Z,3.17
2019-01-12T12:00:20.589Z,4.07
2019-01-12T12:02:49.293Z,9.17
2019-01-12T12:05:17.944Z,3.50
2019-01-12T12:07:46.507Z,4.17
2019-01-12T12:10:16.728Z,4.30
2019-01-12T12:12:45.288Z,4.20
2019-01-12T12:15:18.447Z,4.37
2019-01-12T12:17:47.082Z,6.77
2019-01-12T12:20:18.108Z,4.77
2019-01-12T12:22:46.669Z,4.13
2019-01-12T12:25:15.324Z,4.73
2019-01-12T12:27:44.255Z,5.27
2019-01-12T12:30:16.046Z,4.63
2019-01-12T12:32:44.608Z,4.40
2019-01-12T12:35:13.467Z,5.30
2019-01-12T12:37:42.026Z,4.60
2019-01-12T12:40:13.680Z,4.20
2019-01-12T12:42:42.239Z,4.13
2019-01-12T12:45:13.896Z,6.50
2019-01-12T12:47:42.529Z,5.17
2019-01-12T12:50:13.751Z,5.30
2019-01-12T12:52:42.482Z,5.23
2019-01-12T12:55:13.103Z,5.60
2019-01-12T12:57:41.729Z,4.90
2019-01-12T13:00:16.259Z,6.73
2019-01-12T13:02:44.823Z,4.93
2019-01-12T13:05:13.647Z,5.00
2019-01-12T13:07:42.271Z,5.53
2019-01-12T13:10:14.259Z,5.60
2019-01-12T13:12:42.815Z,5.23
2019-01-12T13:15:11.448Z,5.60
2019-01-12T13:17:40.108Z,5.47
2019-01-12T13:20:14.437Z,5.23
2019-01-12T13:22:43.362Z,5.47
2019-01-12T13:25:12.162Z,5.73
2019-01-12T13:27:40.824Z,5.63
2019-01-12T13:30:23.926Z,5.30
2019-01-12T13:32:52.485Z,5.23
2019-01-12T13:35:21.284Z,5.60
2019-01-12T13:37:50.036Z,6.13
2019-01-12T13:40:23.655Z,5.73
2019-01-12T13:42:52.508Z,5.07
2019-01-12T13:45:21.911Z,5.03
2019-01-12T13:47:50.667Z,5.20
2019-01-12T13:50:21.760Z,6.10
2019-01-12T13:52:50.337Z,7.60
2019-01-12T13:55:18.963Z,6.90
2019-01-12T13:57:48.225Z,12.70
2019-01-12T14:00:28.153Z,15.00
2019-01-12T14:02:56.736Z,8.63
2019-01-12T14:05:26.544Z,6.40
2019-01-12T14:07:56.622Z,7.00
2019-01-12T14:10:25.537Z,7.07
2019-01-12T14:12:54.259Z,8.20
2019-01-12T14:15:23.356Z,6.60
2019-01-12T14:17:51.948Z,7.10
2019-01-12T14:20:22.944Z,7.77
2019-01-12T14:22:51.523Z,9.00
2019-01-12T14:25:20.168Z,6.40
2019-01-12T14:27:54.220Z,6.83
2019-01-12T14:30:21.297Z,5.50
2019-01-12T14:32:50.317Z,6.50
2019-01-12T14:35:19.616Z,5.80
2019-01-12T14:37:48.273Z,5.70
2019-01-12T14:40:18.676Z,6.77
2019-01-12T14:42:47.695Z,5.50
2019-01-12T14:45:22.124Z,4.97
2019-01-12T14:47:50.767Z,5.10
2019-01-12T14:50:19.328Z,6.53
2019-01-12T14:52:47.980Z,5.07
2019-01-12T14:55:18.976Z,6.77
2019-01-12T14:57:47.558Z,4.70
2019-01-12T15:00:21.123Z,6.20
2019-01-12T15:02:49.789Z,4.80
2019-01-12T15:05:20.281Z,6.47
2019-01-12T15:07:48.852Z,6.80
2019-01-12T15:10:20.576Z,5.00
2019-01-12T15:12:49.931Z,5.60
2019-01-12T15:15:19.424Z,3.60
2019-01-12T15:17:48.274Z,3.10
2019-01-12T15:20:25.403Z,2.70
2019-01-12T15:22:53.995Z,3.10
2019-01-12T15:25:22.554Z,3.03
2019-01-12T15:27:51.201Z,3.50
2019-01-12T15:30:27.760Z,2.93
2019-01-12T15:32:56.780Z,4.20
2019-01-12T15:35:28.384Z,4.47
2019-01-12T15:37:56.969Z,4.53
2019-01-12T15:40:25.594Z,4.00
2019-01-12T15:42:54.180Z,3.90
2019-01-12T15:45:24.884Z,3.63
2019-01-12T15:47:53.460Z,4.67
2019-01-12T15:50:24.158Z,4.47
2019-01-12T15:52:52.980Z,3.37
2019-01-12T15:55:21.611Z,4.33
2019-01-12T15:57:50.260Z,4.23
2019-01-12T16:00:21.328Z,4.80
2019-01-12T16:02:49.908Z,4.40
2019-01-12T16:05:18.469Z,4.40
2019-01-12T16:07:47.053Z,4.63
2019-01-12T16:10:16.348Z,4.60
2019-01-12T16:12:45.325Z,4.90
2019-01-12T16:15:22.342Z,4.93
2019-01-12T16:17:50.991Z,4.83
2019-01-12T16:20:25.232Z,4.67
2019-01-12T16:22:53.817Z,5.20
2019-01-12T16:25:22.380Z,4.60
2019-01-12T16:27:50.959Z,4.50
2019-01-12T16:30:20.955Z,5.53
2019-01-12T16:32:49.908Z,4.77
2019-01-12T16:35:19.008Z,4.47
2019-01-12T16:37:47.656Z,4.93
2019-01-12T16:40:18.931Z,4.23
2019-01-12T16:42:47.588Z,3.97
2019-01-12T16:45:16.687Z,3.93
2019-01-12T16:47:45.267Z,4.77
2019-01-12T16:50:14.199Z,4.10
2019-01-12T16:52:42.788Z,4.23
2019-01-12T16:55:13.693Z,4.23
2019-01-12T16:57:42.277Z,4.37
2019-01-12T17:00:17.149Z,5.07
2019-01-12T17:02:45.848Z,4.57
2019-01-12T17:05:14.396Z,4.87
2019-01-12T17:07:42.976Z,5.00
2019-01-12T17:10:14.743Z,4.87
2019-01-12T17:12:43.396Z,4.73
2019-01-12T17:15:14.399Z,5.73
2019-01-12T17:17:42.993Z,10.20
2019-01-12T17:20:23.083Z,5.97
2019-01-12T17:22:52.846Z,5.53
2019-01-12T17:25:21.420Z,5.30
2019-01-12T17:27:50.005Z,6.07
2019-01-12T17:30:20.910Z,5.70
2019-01-12T17:32:49.499Z,5.53
2019-01-12T17:35:18.056Z,5.40
2019-01-12T17:37:47.388Z,6.20
2019-01-12T17:40:17.195Z,5.30
2019-01-12T17:42:45.944Z,5.73
2019-01-12T17:45:17.149Z,5.60
2019-01-12T17:47:45.727Z,4.77
2019-01-12T17:50:16.735Z,5.10
2019-01-12T17:52:45.461Z,5.23
2019-01-12T17:55:16.255Z,5.00
2019-01-12T17:57:44.840Z,5.13
2019-01-12T18:00:18.252Z,5.40
2019-01-12T18:02:46.909Z,5.80
2019-01-12T18:05:15.464Z,7.27
2019-01-12T18:07:44.102Z,4.43
2019-01-12T18:10:14.598Z,5.47
2019-01-12T18:12:43.172Z,5.93
2019-01-12T18:15:14.588Z,6.57
2019-01-12T18:17:43.371Z,7.00
2019-01-12T18:20:14.868Z,5.97
2019-01-12T18:22:43.455Z,5.70
2019-01-12T18:25:13.249Z,6.60
2019-01-12T18:27:42.371Z,6.80
2019-01-12T18:30:14.240Z,6.77
2019-01-12T18:32:42.800Z,6.97
2019-01-12T18:35:11.384Z,5.77
2019-01-12T18:37:39.952Z,5.63
2019-01-12T18:40:11.684Z,6.50
2019-01-12T18:42:40.247Z,8.07
2019-01-12T18:45:11.676Z,7.33
2019-01-12T18:47:40.304Z,6.77
2019-01-12T18:50:11.997Z,7.60
2019-01-12T18:52:40.555Z,7.27
2019-01-12T18:55:11.572Z,6.13
2019-01-12T18:57:40.133Z,7.83
2019-01-12T19:00:19.872Z,6.83
2019-01-12T19:02:48.686Z,6.50
2019-01-12T19:05:17.508Z,7.60
2019-01-12T19:07:46.067Z,6.37
2019-01-12T19:10:15.091Z,7.30
2019-01-12T19:12:43.660Z,5.80
2019-01-12T19:15:15.347Z,6.50
2019-01-12T19:17:43.912Z,6.07
2019-01-12T19:20:12.727Z,7.10
2019-01-12T19:22:41.430Z,6.87
2019-01-12T19:25:12.517Z,7.70
2019-01-12T19:27:41.065Z,5.57
2019-01-12T19:30:15.839Z,5.43
2019-01-12T19:32:44.396Z,5.93
2019-01-12T19:35:13.247Z,6.03
2019-01-12T19:37:41.807Z,5.13
2019-01-12T19:40:13.007Z,4.47
2019-01-12T19:42:41.567Z,5.53
2019-01-12T19:45:12.487Z,5.93
2019-01-12T19:47:41.048Z,6.83
2019-01-12T19:50:12.871Z,5.30
2019-01-12T19:52:41.435Z,5.43
2019-01-12T19:55:10.157Z,6.77
2019-01-12T19:57:38.731Z,4.07
2019-01-12T20:00:16.667Z,7.03
2019-01-12T20:02:45.232Z,9.73
2019-01-12T20:05:14.661Z,9.03
2019-01-12T20:07:43.288Z,6.93
2019-01-12T20:10:14.513Z,8.97
2019-01-12T20:12:43.077Z,10.00
2019-01-12T20:15:14.700Z,8.20
2019-01-12T20:17:43.265Z,5.53
2019-01-12T20:20:14.013Z,7.17
2019-01-12T20:22:42.577Z,4.93
2019-01-12T20:25:14.297Z,5.67
2019-01-12T20:27:42.864Z,8.17
2019-01-12T20:30:32.764Z,7.03
2019-01-12T20:33:25.561Z,6.03
2019-01-12T20:36:03.044Z,6.60
2019-01-12T20:38:40.328Z,6.70
2019-01-12T20:41:26.752Z,8.80
2019-01-12T20:44:04.511Z,8.00
2019-01-12T20:46:42.083Z,5.37
2019-01-12T20:49:19.451Z,7.30
2019-01-12T20:52:05.933Z,6.90
2019-01-12T20:54:52.724Z,6.90
2019-01-12T20:57:42.567Z,5.83
2019-01-12T21:00:19.880Z,5.20
2019-01-12T21:03:11.148Z,7.90
2019-01-12T21:05:42.799Z,6.20
2019-01-12T21:08:23.218Z,8.03
2019-01-12T21:10:54.875Z,4.13
2019-01-12T21:13:41.038Z,5.80
2019-01-12T21:16:12.704Z,4.50
2019-01-12T21:18:41.265Z,5.60
2019-01-12T21:21:09.845Z,5.40
2019-01-12T21:23:38.408Z,4.80
2019-01-12T21:26:06.992Z,7.73
2019-01-12T21:28:35.554Z,7.67
2019-01-12T21:31:04.132Z,7.00
2019-01-12T21:33:32.692Z,4.60
2019-01-12T21:36:01.272Z,8.40
2019-01-12T21:38:29.832Z,5.00
2019-01-12T21:40:58.416Z,3.87
2019-01-12T21:43:26.976Z,6.93
2019-01-12T21:45:55.556Z,7.43
2019-01-12T21:48:24.121Z,8.73
2019-01-12T21:50:52.721Z,6.97
2019-01-12T21:53:21.276Z,6.10
2019-01-12T21:55:49.865Z,7.87
2019-01-12T21:58:18.423Z,7.13
2019-01-12T22:00:47.082Z,6.73
2019-01-12T22:03:15.654Z,10.77
2019-01-12T22:05:44.219Z,5.50
2019-01-12T22:08:12.783Z,6.27
2019-01-12T22:10:41.368Z,6.23
2019-01-12T22:13:09.932Z,4.90
2019-01-12T22:15:38.519Z,9.17
2019-01-12T22:18:07.085Z,8.27
2019-01-12T22:20:35.668Z,8.43
2019-01-12T22:23:04.310Z,4.73
2019-01-12T22:25:32.893Z,4.53
2019-01-12T22:28:01.452Z,8.00
2019-01-12T22:30:30.045Z,6.23
2019-01-12T22:32:58.599Z,5.63
2019-01-12T22:35:27.180Z,9.47
2019-01-12T22:37:55.739Z,5.03
2019-01-12T22:40:24.325Z,4.40
2019-01-12T22:42:52.882Z,6.60
2019-01-12T22:45:21.469Z,4.23
2019-01-12T22:47:50.033Z,3.87
2019-01-12T22:50:18.613Z,3.47
2019-01-12T22:52:47.240Z,6.23
2019-01-12T22:55:15.888Z,6.50
2019-01-12T22:57:44.448Z,5.73
2019-01-12T23:00:32.493Z,4.00
2019-01-12T23:03:01.129Z,4.83
2019-01-12T23:05:29.707Z,7.93
2019-01-12T23:07:58.276Z,5.97
2019-01-12T23:10:26.861Z,4.70
2019-01-12T23:12:55.487Z,6.33
2019-01-12T23:15:24.068Z,3.47
2019-01-12T23:17:52.629Z,5.63
2019-01-12T23:20:21.213Z,3.67
2019-01-12T23:22:49.784Z,7.40
2019-01-12T23:25:18.364Z,6.47
2019-01-12T23:27:46.921Z,3.60
2019-01-12T23:30:16.448Z,4.57
2019-01-12T23:32:45.012Z,5.20
2019-01-12T23:35:13.836Z,7.27
2019-01-12T23:37:42.395Z,5.63
2019-01-12T23:40:13.188Z,4.23
2019-01-12T23:42:41.743Z,7.60
2019-01-12T23:45:14.588Z,7.60
2019-01-12T23:47:43.220Z,5.50
2019-01-12T23:50:13.447Z,6.40
2019-01-12T23:52:42.147Z,5.50
2019-01-12T23:55:11.043Z,6.57
2019-01-12T23:57:39.628Z,5.27
